Airport details for: EDDT (Germany)

Metar

EDDT 270050Z VRB02KT CAVOK 01/M00 Q1013

General details

ICAO: EDDT
IATA: TXL
Name (city): Tegel
Major:
Country: Germany
vACC: vACC Germany
Description:
Scenery links:
FS9 scenery: Download
FSX/P3D scenery: Download
XP scenery:
Elevation: 122 ft.
Transition altitude: 5000 ft.
MSA: 9900 ft.
Latitude: 52.559686
Longitude: 13.287711
EDDT Charts
EDDT Notams
EDDT Online stations

Runways

Number Course Length Elevation Lat Lon ILS ILS freq ILS FAC GP
08L 79° 9918ft / 3023 m 110ft 52.557642 13.26575 109.1 79° 3.0°
08R 79° 7966ft / 2428 m 109ft 52.556828 13.276508 108.5 79° 3.0°
26L 259° 7966ft / 2428 m 122ft 52.559825 13.307122 109.3 259° 3.0°
26R 259° 9918ft / 3023 m 117ft 52.561956 13.309758 110.1 259° 3.0°